M I D A S
Marine Information and Data Acquisition System
Tripno 1577 of the Zeeleeuw from 2008-09-30 06:24:46 to 2008-09-30 13:58:00
Back to CruiseResearch ActivitiesStationsMapUnderway DataData graphs

EquipmentUnitsComment
TimeDGPSUTC
LatitudeDGPSDM.mWGS84
LongitudeDGPSDM.mWGS84
HeadingGyrodeg 
SOGDGPSknotsSpeed over ground
COGDGPSdegCourse over ground
DepthEcho soundermeters200 kHz
Missing or incorrect values are displayed as -999
Navigation data collected by the RV Zeeleeuw from 2008-09-30 06:24:46 to 2008-09-30 13:58:00
Time Latitude Longitude Heading SOG COG Depth
2008-09-30 06:26:50 51°13.623 2°56.045 119.2   187 -999
2008-09-30 06:28:50 51°13.674 2°55.874 114.7 4 296 -999
2008-09-30 06:30:50 51°13.687 2°55.751 85 2.5 270 -999
2008-09-30 06:32:50 51°13.696 2°55.764 7.9 0.69 14 -999
2008-09-30 06:34:50 51°13.868 2°55.612 328.6 6.9 329 -999
2008-09-30 06:36:50 51°14.115 2°55.421 334.6 8.3 334 -999
2008-09-30 06:38:50 51°14.34 2°55.113 318.5 8.9 317 -999
2008-09-30 06:40:50 51°14.491 2°54.669 295.3 9.69 292 -999
2008-09-30 06:42:50 51°14.644 2°54.15 299.3 11.19 295 -999
2008-09-30 06:44:50 51°14.693 2°53.568 279 11.3 276 -999
2008-09-30 06:46:50 51°14.727 2°52.98 277.8 11 275 -999
2008-09-30 06:48:50 51°14.767 2°52.384 279.3 11.4 277 -999
2008-09-30 06:50:50 51°14.811 2°51.785 281.1 11.4 277 -999
2008-09-30 06:52:50 51°14.854 2°51.179 281.3 11.3 276 -999
2008-09-30 06:54:50 51°14.894 2°50.575 280.6 11.3 277 -999
2008-09-30 06:56:50 51°14.93 2°49.966 281.3 11.69 275 -999
2008-09-30 06:58:50 51°14.918 2°49.36 271.3 11.19 264 -999
2008-09-30 07:00:50 51°14.866 2°48.725 266.1 12.19 264 -999
2008-09-30 07:02:50 51°14.819 2°48.106 266.1 11.59 262 -999
2008-09-30 07:04:50 51°14.777 2°47.479 267.6 11.9 264 -999
2008-09-30 07:06:50 51°14.733 2°46.845 267.6 11.5 264 -999
2008-09-30 07:08:50 51°14.693 2°46.232 267 12 264 -999
2008-09-30 07:10:50 51°14.655 2°45.631 267.3 11.3 265 -999
2008-09-30 07:12:50 51°14.608 2°45.025 265.1 11.8 264 -999
2008-09-30 07:14:50 51°14.555 2°44.399 266.6 12 264 -999
2008-09-30 07:16:50 51°14.488 2°43.778 265.3 11.8 260 -999
2008-09-30 07:18:50 51°14.425 2°43.142 265.1 12.19 261 -999
2008-09-30 07:20:50 51°14.363 2°42.518 265.1 11.9 261 -999
2008-09-30 07:22:50 51°14.301 2°41.879 265.1 12.09 260 -999
2008-09-30 07:24:50 51°14.457 2°41.408 301.8 11.09 305 -999
2008-09-30 07:26:50 51°14.798 2°41.389 3.8 10.4   -999
2008-09-30 07:28:50 51°15.147 2°41.373 0.2 10.5 357 -999
2008-09-30 07:30:50 51°15.44 2°41.353 358.1 10 2 -999
2008-09-30 07:32:50 51°15.494 2°41.503 61.6 3.39 67 -999
2008-09-30 07:34:50 51°15.483 2°41.727 94 4.59 101 -999
2008-09-30 07:36:50 51°15.427 2°41.823 128 1.6 159 -999
2008-09-30 07:38:50 51°15.385 2°41.831 173.3 1.3 193 -999
2008-09-30 07:40:50 51°15.352 2°41.841 180.9 1.1 184 -999
2008-09-30 07:42:50 51°15.321 2°41.852 170 1 186 -999
2008-09-30 07:44:50 51°15.288 2°41.863 168.3 1.1 176 -999
2008-09-30 07:46:50 51°15.255 2°41.876 173.8 1 173 -999
2008-09-30 07:48:50 51°15.222 2°41.888 169.6 1 154 -999
2008-09-30 07:50:50 51°15.187 2°41.901 169.6 1.1 184 -999
2008-09-30 07:52:50 51°15.154 2°41.915 169.6 1.1 161 -999
2008-09-30 07:54:50 51°15.12 2°41.929 167.8 1 149 -999
2008-09-30 07:56:50 51°15.085 2°41.94 170.3 1.1 171 -999
2008-09-30 07:58:50 51°15.052 2°41.95 171.9 1.1 175 -999
2008-09-30 08:00:50 51°15.02 2°41.96 170.8 1 169 -999
2008-09-30 08:02:50 51°14.989 2°41.971 169 1.1 177 -999
2008-09-30 08:04:50 51°14.957 2°41.983 169.5 1 166 -999
2008-09-30 08:06:50 51°14.923 2°41.991 173.9 1 168 -999
2008-09-30 08:08:50 51°14.89 2°41.997 172.8 0.9 179 -999
2008-09-30 08:10:50 51°14.855 2°42.005 172.4 1 150 -999
2008-09-30 08:12:50 51°14.821 2°42.01 175 1.1 194 -999
2008-09-30 08:14:50 51°14.786 2°42.016 174.4 1 174 -999
2008-09-30 08:16:50 51°14.751 2°42.023 170 1.1 181 -999
2008-09-30 08:18:50 51°14.724 2°42.031 170.3 0.69 174 -999
2008-09-30 08:20:50 51°14.692 2°42.039 173 1.1 176 -999
2008-09-30 08:22:50 51°14.659 2°42.045 180 1 156 -999
2008-09-30 08:24:50 51°14.628 2°42.054 179.9 0.9 176 -999
2008-09-30 08:26:50 51°14.601 2°42.064 171.6 0.9 152 -999
2008-09-30 08:28:50 51°14.575 2°42.074 170.9 1 173 -999
2008-09-30 08:30:50 51°14.547 2°42.082 170.6 0.8 151 -999
2008-09-30 08:32:50 51°14.516 2°42.083 180.3 1 202 -999
2008-09-30 08:34:50 51°14.49 2°42.087 173.4 0.8 164 -999
2008-09-30 08:36:50 51°14.463 2°42.09 166.8 0.8 184 -999
2008-09-30 08:38:50 51°14.434 2°42.091 175 0.9 178 -999
2008-09-30 08:40:50 51°14.406 2°42.092 176 0.9 176 -999
2008-09-30 08:42:50 51°14.382 2°42.093 170.6 0.8 194 -999
2008-09-30 08:44:50 51°14.355 2°42.092 174.9 0.8 156 -999
2008-09-30 08:46:50 51°14.333 2°42.092 170.4 0.59 166 -999
2008-09-30 08:48:50 51°14.307 2°42.088 170.9 0.8 173 -999
2008-09-30 08:50:50 51°14.279 2°42.086 174.8 0.8 163 -999
2008-09-30 08:52:50 51°14.247 2°42.081 174.8 0.9 177 -999
2008-09-30 08:54:50 51°14.219 2°42.078 174 0.9 192 -999
2008-09-30 08:56:50 51°14.192 2°42.081 168.3 0.8 187 -999
2008-09-30 08:58:50 51°14.162 2°42.083 168.4 1 184 -999
2008-09-30 09:00:50 51°14.13 2°42.084 172.3 1 183 -999
2008-09-30 09:02:50 51°14.101 2°42.085 171.5 0.8 170 -999
2008-09-30 09:04:50 51°14.071 2°42.091 171.3 1 175 -999
2008-09-30 09:06:50 51°14.045 2°42.096 171.4 0.8 174 -999
2008-09-30 09:08:50 51°14.018 2°42.101 167.5 0.9 178 -999
2008-09-30 09:10:50 51°13.989 2°42.105 168.9 0.9 175 -999
2008-09-30 09:12:50 51°13.956 2°42.107 172 1.1 176 -999
2008-09-30 09:14:50 51°13.926 2°42.107 171.1 0.9 179 -999
2008-09-30 09:16:50 51°13.898 2°42.109 164.9 0.9 182 -999
2008-09-30 09:18:50 51°13.871 2°42.112 164.6 0.8 169 -999
2008-09-30 09:20:50 51°13.847 2°42.113 158.9 0.8 179 -999
2008-09-30 09:22:50 51°13.819 2°42.114 162.6 0.69 176 -999
2008-09-30 09:24:50 51°13.788 2°42.117 164.5 1 187 -999
2008-09-30 09:26:50 51°13.761 2°42.125 163.1 0.9 179 -999
2008-09-30 09:28:50 51°13.729 2°42.131 164.1 0.8 170 -999
2008-09-30 09:30:50 51°13.698 2°42.137 170.9 0.9 179 -999
2008-09-30 09:32:50 51°13.67 2°42.145 165 0.9 176 -999
2008-09-30 09:34:50 51°13.645 2°42.153 162.5 0.8 157 -999
2008-09-30 09:36:50 51°13.618 2°42.163 163 0.9 182 -999
2008-09-30 09:38:50 51°13.589 2°42.169 163.9 1.1 173 -999
2008-09-30 09:40:50 51°13.558 2°42.175 165.6 0.9 176 -999
2008-09-30 09:42:50 51°13.531 2°42.185 163.9 0.8 166 -999
2008-09-30 09:44:50 51°13.487 2°42.197 166.3 1.5 168 -999
2008-09-30 09:46:50 51°13.409 2°42.106 214.1 3.6 217 -999
2008-09-30 09:48:50 51°13.453 2°42.034 334.8 1.6 323 -999
2008-09-30 09:50:50 51°13.501 2°42.007 342 1.39 333 -999
2008-09-30 09:52:50 51°13.554 2°41.979 345.5 1.69 348 -999
2008-09-30 09:54:50 51°13.667 2°41.931 346.8 3.89 345 -999
2008-09-30 09:56:50 51°13.837 2°41.913 353.3 5.29 354 -999
2008-09-30 09:58:50 51°14.013 2°41.957 8.9 5.4 10 -999
2008-09-30 10:00:50 51°14.194 2°42.005 10.4 5.29 12 -999
2008-09-30 10:02:50 51°14.37 2°42.051 7.5 5.29 9 -999
2008-09-30 10:04:50 51°14.553 2°42.099 6.4 5.5 7 -999
2008-09-30 10:06:50 51°14.735 2°42.145 6.9 5.5 11 -999
2008-09-30 10:08:50 51°14.878 2°42.108 350 5 346 -999
2008-09-30 10:10:50 51°14.908 2°42.056 305.5 1.3 309 -999
2008-09-30 10:12:50 51°14.93 2°41.913 281.8 2.7 269 -999
2008-09-30 10:14:50 51°14.94 2°41.82 279 1.69 279 -999
2008-09-30 10:16:50 51°14.934 2°41.757 269.3 1 261 -999
2008-09-30 10:18:50 51°14.948 2°41.771 313.6 0.59 69 -999
2008-09-30 10:20:50 51°14.952 2°41.719 262.8 1.39 246 -999
2008-09-30 10:22:50 51°14.938 2°41.753 253.5 0.9 131 -999
2008-09-30 10:24:50 51°14.936 2°41.771 283.3 0.2 68 -999
2008-09-30 10:26:50 51°14.869 2°41.591 261.5 5 244 -999
2008-09-30 10:28:50 51°14.777 2°41.37 251 4.9 252 -999
2008-09-30 10:30:50 51°14.788 2°41.371 289.3 0.69 338 -999
2008-09-30 10:32:50 51°14.792 2°41.405 272.8 0.9 92 -999
2008-09-30 10:34:50 51°14.711 2°41.267 250.1 5.5 233 -999
2008-09-30 10:36:50 51°14.629 2°41.012 248.1 6 239 -999
2008-09-30 10:38:50 51°14.62 2°41.029 266.5 0.4 111 -999
2008-09-30 10:40:50 51°14.637 2°41.062 289.8 0.8 62 -999
2008-09-30 10:42:50 51°14.616 2°40.993 275.1 2.2 260 -999
2008-09-30 10:44:50 51°14.491 2°40.728 227 7.7 220 -999
2008-09-30 10:46:50 51°14.478 2°40.655 269.6 0.9 258 -999
2008-09-30 10:48:50 51°14.491 2°40.715 285.8 1.6 68 -999
2008-09-30 10:50:50 51°14.465 2°40.603 278.3 3.39 274 -999
2008-09-30 10:52:50 51°14.339 2°40.333 244.3 7.59 236 -999
2008-09-30 10:54:50 51°14.341 2°40.313 275.8 0.29 4 -999
2008-09-30 10:56:50 51°14.355 2°40.391 291.3 1.8 75 -999
2008-09-30 10:58:50 51°14.371 2°40.4 281.1 0.4 328 -999
2008-09-30 11:00:50 51°14.279 2°40.207 242.8 5.29 236 -999
2008-09-30 11:02:50 51°14.14 2°39.907 241.3 7.2 234 -999
2008-09-30 11:04:50 51°14.091 2°39.803 252.6 1.3 239 -999
2008-09-30 11:06:50 51°14.112 2°39.869 291.3 1.39 69 -999
2008-09-30 11:08:50 51°14.107 2°39.893 256.5 0.29 118 -999
2008-09-30 11:10:50 51°14.019 2°39.798 228.4 4 220 -999
2008-09-30 11:12:50 51°13.893 2°39.53 240.3 6.4 238 -999
2008-09-30 11:14:50 51°13.803 2°39.27 247 6.29 243 -999
2008-09-30 11:16:50 51°13.798 2°39.267 263.3 0.4 37 -999
2008-09-30 11:18:50 51°13.764 2°39.258 235.9 1.5 183 -999
2008-09-30 11:20:50 51°13.723 2°39.222 247.6 1.1 207 -999
2008-09-30 11:22:50 51°13.623 2°38.978 243.8 5.5 244 -999
2008-09-30 11:24:50 51°13.579 2°38.928 240.4 0.5 143 -999
2008-09-30 11:26:50 51°13.59 2°38.945 268.5 0.8 19 -999
2008-09-30 11:28:50 51°13.585 2°38.935 251.1 0.59 248 -999
2008-09-30 11:30:50 51°13.529 2°39.01 216.5 1.6 136 -999
2008-09-30 11:32:50 51°13.591 2°39.443 62.3 9 68 -999
2008-09-30 11:34:50 51°13.755 2°40.054 64.5 12.9 72 -999
2008-09-30 11:36:50 51°13.951 2°40.677 59.7 13 62 -999
2008-09-30 11:38:50 51°14.192 2°41.233 51.2 13.5 60 -999
2008-09-30 11:40:50 51°14.299 2°41.252 309.1 2.7 343 -999
2008-09-30 11:42:50 51°14.311 2°41.227 264.8 0.69 331 -999
2008-09-30 11:44:50 51°14.356 2°41.331 306.3 2.5 59 -999
2008-09-30 11:46:50 51°14.411 2°41.373 319.1 2.5 10 -999
2008-09-30 11:48:50 51°14.331 2°41.111 247.8 6 248 -999
2008-09-30 11:50:50 51°14.226 2°40.804 244.5 6.7 240 -999
2008-09-30 11:52:50 51°14.189 2°40.673 250.5 1.69 244 -999
2008-09-30 11:54:50 51°14.181 2°40.708 240 0.69 110 -999
2008-09-30 11:56:50 51°14.152 2°40.692 226.1 1.3 181 -999
2008-09-30 11:58:50 51°14.064 2°40.416 243.6 6 241 -999
2008-09-30 13:00:50 51°12.15 2°47.923 266.5 1.1 42 -999
2008-09-30 13:02:50 51°12.131 2°47.936 227.5 0.8 167 -999
2008-09-30 13:04:50 51°12.157 2°47.945 263.5 1 24 -999
2008-09-30 13:06:50 51°12.21 2°47.989 281 1.8 27 -999
2008-09-30 13:08:50 51°12.258 2°48.03 275.6 1.5 21 -999
2008-09-30 13:10:50 51°12.249 2°47.979 239.6 1.89 227 -999
2008-09-30 13:12:50 51°12.134 2°47.81 227.6 5.5 238 -999
2008-09-30 13:14:50 51°12.078 2°47.738 249.9 2.39 274 -999
2008-09-30 13:16:50 51°12.137 2°47.775 283 1.89 33 -999
2008-09-30 13:18:50 51°12.15 2°47.814 241.5 0.5 71 -999
2008-09-30 13:20:50 51°12.172 2°47.86 257.8 1.1 41 -999
2008-09-30 13:22:50 51°12.182 2°47.87 248.3 0.29 104 -999
2008-09-30 13:24:50 51°12.18 2°47.854 250.1 0.2 264 -999
2008-09-30 13:26:50 51°12.184 2°47.906 244.5 1.1 80 -999
2008-09-30 13:28:50 51°12.188 2°47.99 232 1.69 77 -999
2008-09-30 13:30:50 51°12.223 2°48.286 96.7 7.4 77 -999
2008-09-30 13:32:50 51°12.499 2°48.738 42.7 11.9 43 -999
2008-09-30 13:34:50 51°12.714 2°49.296 50.6 12.3 61 -999
2008-09-30 13:36:50 51°12.907 2°49.898 65.5 12.59 58 -999
2008-09-30 13:38:50 51°13.138 2°50.475 58.7 13.09 56 -999
2008-09-30 13:40:50 51°13.37 2°51.054 58.7 12.9 54 -999
2008-09-30 13:42:50 51°13.6 2°51.637 57.3 12.5 61 -999
2008-09-30 13:44:50 51°13.811 2°52.228 62 13.09 63 -999
2008-09-30 13:46:50 51°14.02 2°52.828 63.2 12.69 61 -999
2008-09-30 13:48:50 51°14.226 2°53.423 64 13.19 62 -999
2008-09-30 13:50:50 51°14.377 2°54.049 63.1 12.59 69 -999
2008-09-30 13:52:50 51°14.415 2°54.735 89.5 13 82 -999
2008-09-30 13:54:50 51°14.241 2°55.287 122.2 11.69 123 -999
2008-09-30 13:56:50 51°14.024 2°55.496 154.6 7 156 -999